createdAt,value
2022-07-29T00:00:49.889Z,22.18
2022-07-29T00:03:17.569Z,22.17
2022-07-29T00:05:45.410Z,22.18
2022-07-29T00:08:13.039Z,22.17
2022-07-29T00:10:40.647Z,22.16
2022-07-29T00:13:08.250Z,22.17
2022-07-29T00:15:37.302Z,22.15
2022-07-29T00:18:05.183Z,22.15
2022-07-29T00:20:32.796Z,22.15
2022-07-29T00:23:00.475Z,22.15
2022-07-29T00:25:28.118Z,22.15
2022-07-29T00:27:55.730Z,22.15
2022-07-29T00:30:23.573Z,22.15
2022-07-29T00:32:52.545Z,22.16
2022-07-29T00:35:37.910Z,22.15
2022-07-29T00:38:05.515Z,22.15
2022-07-29T00:40:33.117Z,22.14
2022-07-29T00:43:00.779Z,22.16
2022-07-29T00:45:28.391Z,22.15
2022-07-29T00:47:57.358Z,22.14
2022-07-29T00:50:25.335Z,22.15
2022-07-29T00:52:53.271Z,22.14
2022-07-29T00:55:21.039Z,22.13
2022-07-29T00:57:48.698Z,22.12
2022-07-29T01:00:19.181Z,22.11
2022-07-29T01:02:49.083Z,22.11
2022-07-29T01:05:18.874Z,22.11
2022-07-29T01:07:46.489Z,22.11
2022-07-29T01:10:14.953Z,22.11
2022-07-29T01:12:42.582Z,22.12
2022-07-29T01:15:10.724Z,22.13
2022-07-29T01:17:41.014Z,22.11
2022-07-29T01:20:24.584Z,22.11
2022-07-29T01:23:13.873Z,22.11
2022-07-29T01:25:57.069Z,22.11
2022-07-29T01:28:43.587Z,22.10
2022-07-29T01:31:16.577Z,22.09
2022-07-29T01:33:57.216Z,22.11
2022-07-29T01:36:25.857Z,22.12
2022-07-29T01:38:56.304Z,22.11
2022-07-29T01:41:23.901Z,22.10
2022-07-29T01:43:55.529Z,22.10
2022-07-29T01:46:25.073Z,22.10
2022-07-29T01:48:55.177Z,22.10
2022-07-29T01:51:45.725Z,22.08
2022-07-29T01:54:15.794Z,22.08
2022-07-29T01:56:44.241Z,22.08
2022-07-29T01:59:13.192Z,22.07
2022-07-29T02:01:41.710Z,22.07
2022-07-29T02:04:10.705Z,22.07
2022-07-29T02:06:39.399Z,22.06
2022-07-29T02:09:25.607Z,22.08
2022-07-29T02:12:13.554Z,22.07
2022-07-29T02:14:45.707Z,22.06
2022-07-29T02:17:13.667Z,22.06
2022-07-29T02:19:41.282Z,22.05
2022-07-29T02:22:08.917Z,22.04
2022-07-29T02:24:37.368Z,22.02
2022-07-29T02:27:05.340Z,22.03
2022-07-29T02:29:32.972Z,22.03
2022-07-29T02:32:02.008Z,22.04
2022-07-29T02:34:29.606Z,22.03
2022-07-29T02:36:57.274Z,22.01
2022-07-29T02:39:25.070Z,22.01
2022-07-29T02:41:53.892Z,22.02
2022-07-29T02:44:22.900Z,22.02
2022-07-29T02:46:52.978Z,22.02
2022-07-29T02:49:34.954Z,21.99
2022-07-29T02:52:05.104Z,22.01
2022-07-29T02:54:35.392Z,22.00
2022-07-29T02:57:04.167Z,22.01
2022-07-29T02:59:32.958Z,22.01
2022-07-29T03:02:00.708Z,22.01
2022-07-29T03:04:30.276Z,22.01
2022-07-29T03:06:58.925Z,21.99
2022-07-29T03:09:26.633Z,22.01
2022-07-29T03:11:55.366Z,21.98
2022-07-29T03:14:23.914Z,21.98
2022-07-29T03:16:51.717Z,21.97
2022-07-29T03:19:19.557Z,21.98
2022-07-29T03:21:48.512Z,21.97
2022-07-29T03:24:32.453Z,21.97
2022-07-29T03:27:00.602Z,21.97
2022-07-29T03:29:34.009Z,21.97
2022-07-29T03:32:03.341Z,21.96
2022-07-29T03:34:31.878Z,21.96
2022-07-29T03:37:00.971Z,21.95
2022-07-29T03:39:30.085Z,21.96
2022-07-29T03:41:58.201Z,21.94
2022-07-29T03:44:26.008Z,21.96
2022-07-29T03:46:55.121Z,21.94
2022-07-29T03:49:22.845Z,21.93
2022-07-29T03:51:50.818Z,21.93
2022-07-29T03:54:19.967Z,21.93
2022-07-29T03:57:08.292Z,21.92
2022-07-29T03:59:36.101Z,21.93
2022-07-29T04:02:06.285Z,21.92
2022-07-29T04:04:35.160Z,21.92
2022-07-29T04:07:02.794Z,21.94
2022-07-29T04:09:31.787Z,21.93
2022-07-29T04:12:03.061Z,21.92
2022-07-29T04:14:32.691Z,21.92
2022-07-29T04:17:00.335Z,21.93
2022-07-29T04:19:27.918Z,21.93
2022-07-29T04:21:55.549Z,21.93
2022-07-29T04:24:23.165Z,21.93
2022-07-29T04:26:52.102Z,21.93
2022-07-29T04:29:20.766Z,21.92
2022-07-29T04:31:48.610Z,21.92
2022-07-29T04:34:16.866Z,21.91
2022-07-29T04:36:44.669Z,21.90
2022-07-29T04:39:12.274Z,21.91
2022-07-29T04:41:39.909Z,21.89
2022-07-29T04:44:09.003Z,21.90
2022-07-29T04:46:37.102Z,21.91
2022-07-29T04:49:05.177Z,21.90
2022-07-29T04:51:32.874Z,21.90
2022-07-29T04:54:00.541Z,21.90
2022-07-29T04:56:28.165Z,21.90
2022-07-29T04:58:55.786Z,21.89
2022-07-29T05:01:24.770Z,21.90
2022-07-29T05:03:53.981Z,21.89
2022-07-29T05:06:24.676Z,21.89
2022-07-29T05:08:55.872Z,21.89
2022-07-29T05:11:27.246Z,21.88
2022-07-29T05:13:57.700Z,21.91
2022-07-29T05:16:26.842Z,21.90
2022-07-29T05:18:54.578Z,21.87
2022-07-29T05:21:22.190Z,21.85
2022-07-29T05:23:49.808Z,21.85
2022-07-29T05:26:17.431Z,21.83
2022-07-29T05:28:45.063Z,21.84
2022-07-29T05:31:12.792Z,21.84
2022-07-29T05:33:41.933Z,21.83
2022-07-29T05:36:09.553Z,21.81
2022-07-29T05:38:37.503Z,21.78
2022-07-29T05:41:05.318Z,21.75
2022-07-29T05:43:32.953Z,21.73
2022-07-29T05:46:01.216Z,21.74
2022-07-29T05:48:32.355Z,21.73
2022-07-29T05:51:20.206Z,21.72
2022-07-29T05:53:47.866Z,21.70
2022-07-29T05:56:15.723Z,21.68
2022-07-29T05:58:43.413Z,21.70
2022-07-29T06:01:11.017Z,21.67
2022-07-29T06:03:39.663Z,21.68
2022-07-29T06:06:08.200Z,21.67
2022-07-29T06:08:37.292Z,21.67
2022-07-29T06:11:05.069Z,21.66
2022-07-29T06:13:32.877Z,21.65
2022-07-29T06:16:00.553Z,21.67
2022-07-29T06:18:28.200Z,21.68
2022-07-29T06:20:55.891Z,21.68
2022-07-29T06:23:23.534Z,21.67
2022-07-29T06:25:52.505Z,21.68
2022-07-29T06:28:20.169Z,21.67
2022-07-29T06:30:47.886Z,21.69
2022-07-29T06:33:18.708Z,21.70
2022-07-29T06:35:49.690Z,21.72
2022-07-29T06:38:30.732Z,21.74
2022-07-29T06:41:03.417Z,21.75
2022-07-29T06:43:34.798Z,21.76
2022-07-29T06:46:03.439Z,21.79
2022-07-29T06:48:31.193Z,21.80
2022-07-29T06:50:58.877Z,21.83
2022-07-29T06:53:26.497Z,21.85
2022-07-29T06:55:54.124Z,21.88
2022-07-29T06:58:23.462Z,21.88
2022-07-29T07:00:51.318Z,21.89
2022-07-29T07:03:19.392Z,21.88
2022-07-29T07:05:47.163Z,21.90
2022-07-29T07:08:16.967Z,21.90
2022-07-29T07:10:45.264Z,21.91
2022-07-29T07:13:12.878Z,21.91
2022-07-29T07:15:41.936Z,21.91
2022-07-29T07:18:09.562Z,21.93
2022-07-29T07:20:37.472Z,21.94
2022-07-29T07:23:05.549Z,21.94
2022-07-29T07:25:33.206Z,21.95
2022-07-29T07:28:00.867Z,21.97
2022-07-29T07:30:29.148Z,21.98
2022-07-29T07:32:58.123Z,21.98
2022-07-29T07:35:25.924Z,22.01
2022-07-29T07:37:53.638Z,22.01
2022-07-29T07:40:39.750Z,22.02
2022-07-29T07:43:27.716Z,22.04
2022-07-29T07:46:15.793Z,22.04
2022-07-29T07:48:46.153Z,22.03
2022-07-29T07:51:13.963Z,22.03
2022-07-29T07:53:41.596Z,22.04
2022-07-29T07:56:11.454Z,22.02
2022-07-29T07:58:40.410Z,22.04
2022-07-29T08:01:08.072Z,22.05
2022-07-29T08:03:35.828Z,22.04
2022-07-29T08:06:05.010Z,22.05
2022-07-29T08:08:32.675Z,22.04
2022-07-29T08:11:06.885Z,22.06
2022-07-29T08:13:36.936Z,22.06
2022-07-29T08:16:12.476Z,22.06
2022-07-29T08:18:40.593Z,22.06
2022-07-29T08:21:09.587Z,22.05
2022-07-29T08:23:45.972Z,22.06
2022-07-29T08:26:16.459Z,22.05
2022-07-29T08:28:46.512Z,22.06
2022-07-29T08:31:14.320Z,22.05
2022-07-29T08:33:42.027Z,22.07
2022-07-29T08:36:11.108Z,22.08
2022-07-29T08:38:38.769Z,22.08
2022-07-29T08:41:06.404Z,22.09
2022-07-29T08:43:36.062Z,22.08
2022-07-29T08:46:03.824Z,22.08
2022-07-29T08:48:31.492Z,22.08
2022-07-29T08:50:59.274Z,22.08
2022-07-29T08:53:28.937Z,22.08
2022-07-29T08:55:57.002Z,22.09
2022-07-29T08:58:25.611Z,22.09
2022-07-29T09:00:55.585Z,22.10
2022-07-29T09:03:25.313Z,22.10
2022-07-29T09:05:53.014Z,22.10
2022-07-29T09:08:21.142Z,22.10
2022-07-29T09:10:50.186Z,22.10
2022-07-29T09:13:17.794Z,22.10
2022-07-29T09:15:45.574Z,22.11
2022-07-29T09:18:19.605Z,22.11
2022-07-29T09:21:15.624Z,22.10
2022-07-29T09:23:44.510Z,22.12
2022-07-29T09:26:13.521Z,22.12
2022-07-29T09:28:43.777Z,22.12
2022-07-29T09:31:11.379Z,22.11
2022-07-29T09:33:41.400Z,22.12
2022-07-29T09:36:10.045Z,22.12
2022-07-29T09:38:38.182Z,22.13
2022-07-29T09:41:06.861Z,22.13
2022-07-29T09:43:35.985Z,22.15
2022-07-29T09:46:12.472Z,22.15
2022-07-29T09:48:40.243Z,22.16
2022-07-29T09:51:08.082Z,22.17
2022-07-29T09:53:37.554Z,22.17
2022-07-29T09:56:06.195Z,22.18
2022-07-29T09:58:34.546Z,22.18
2022-07-29T10:01:04.163Z,22.19
2022-07-29T10:03:32.009Z,22.20
2022-07-29T10:06:07.248Z,22.21
2022-07-29T10:08:34.869Z,22.21
2022-07-29T10:11:13.963Z,22.23
2022-07-29T10:13:42.327Z,22.25
2022-07-29T10:16:11.621Z,22.26
2022-07-29T10:18:41.735Z,22.27
2022-07-29T10:21:10.517Z,22.30
2022-07-29T10:23:46.530Z,22.31
2022-07-29T10:26:15.420Z,22.33
2022-07-29T10:28:43.166Z,22.34
2022-07-29T10:31:16.452Z,22.35
2022-07-29T10:33:50.113Z,22.36
2022-07-29T10:36:24.461Z,22.37
2022-07-29T10:38:55.534Z,22.38
2022-07-29T10:41:47.545Z,22.37
2022-07-29T10:44:17.475Z,22.38
2022-07-29T10:46:48.659Z,22.41
2022-07-29T10:49:18.178Z,22.40
2022-07-29T10:51:57.348Z,22.39
2022-07-29T10:54:45.949Z,22.39
2022-07-29T10:57:17.982Z,22.39
2022-07-29T10:59:46.233Z,22.38
2022-07-29T11:02:50.042Z,22.38
2022-07-29T11:05:20.093Z,22.37
2022-07-29T11:08:26.361Z,22.38
2022-07-29T11:11:10.927Z,22.38
2022-07-29T11:13:48.993Z,22.37
2022-07-29T11:16:17.092Z,22.37
2022-07-29T11:19:26.723Z,22.37
2022-07-29T11:21:58.759Z,22.38
2022-07-29T11:24:29.603Z,22.38
2022-07-29T11:27:18.035Z,22.38
2022-07-29T11:29:55.538Z,22.37
2022-07-29T11:32:24.255Z,22.38
2022-07-29T11:35:17.073Z,22.38
2022-07-29T11:37:51.375Z,22.38
2022-07-29T11:40:23.204Z,22.39
2022-07-29T11:42:51.900Z,22.38
2022-07-29T11:48:29.147Z,22.37
2022-07-29T11:50:59.071Z,22.37
2022-07-29T11:53:28.986Z,22.37
2022-07-29T12:00:56.311Z,22.37
2022-07-29T12:03:34.977Z,22.35
2022-07-29T12:06:15.042Z,22.35
2022-07-29T12:07:02.022Z,22.38
2022-07-29T12:08:44.778Z,22.35
2022-07-29T12:11:20.742Z,22.34
2022-07-29T12:13:49.788Z,22.34
2022-07-29T12:16:25.627Z,22.34
2022-07-29T12:19:00.793Z,22.34
2022-07-29T12:21:31.617Z,22.34
2022-07-29T12:24:05.718Z,22.34
2022-07-29T12:26:37.190Z,22.34
2022-07-29T12:29:11.335Z,22.33
2022-07-29T12:31:45.373Z,22.33
2022-07-29T12:34:25.917Z,22.34
2022-07-29T12:36:54.965Z,22.35
2022-07-29T12:39:22.585Z,22.37
2022-07-29T12:41:50.179Z,22.38
2022-07-29T12:44:17.900Z,22.38
2022-07-29T12:46:47.456Z,22.38
2022-07-29T12:49:23.176Z,22.37
2022-07-29T12:52:30.375Z,22.38
2022-07-29T12:54:58.098Z,22.41
2022-07-29T12:57:25.935Z,22.43
2022-07-29T13:00:08.790Z,22.46
2022-07-29T13:02:37.593Z,22.49
2022-07-29T13:05:06.099Z,22.52
2022-07-29T13:07:55.192Z,22.55
2022-07-29T13:10:24.725Z,22.57
2022-07-29T13:13:06.223Z,22.60
2022-07-29T13:15:34.662Z,22.62
2022-07-29T13:18:02.260Z,22.62
2022-07-29T13:20:30.557Z,22.65
2022-07-29T13:23:00.116Z,22.66
2022-07-29T13:25:28.148Z,22.69
2022-07-29T13:27:56.498Z,22.70
2022-07-29T13:30:24.448Z,22.72
2022-07-29T13:32:52.511Z,22.75
2022-07-29T13:35:20.818Z,22.76
2022-07-29T13:37:48.477Z,22.77
2022-07-29T13:40:17.461Z,22.80
2022-07-29T13:42:45.336Z,22.82
2022-07-29T13:45:14.638Z,22.83
2022-07-29T13:47:47.664Z,22.85
2022-07-29T13:50:17.248Z,22.84
2022-07-29T13:52:45.023Z,22.85
2022-07-29T13:55:12.613Z,22.86
2022-07-29T13:57:41.551Z,22.88
2022-07-29T14:00:10.677Z,22.87
2022-07-29T14:02:39.320Z,22.88
2022-07-29T14:05:25.513Z,22.90
2022-07-29T14:08:13.401Z,22.90
2022-07-29T14:10:41.244Z,22.89
2022-07-29T14:13:24.549Z,22.90
2022-07-29T14:15:53.237Z,22.91
2022-07-29T14:18:20.835Z,22.91
2022-07-29T14:20:48.564Z,22.93
2022-07-29T14:23:16.476Z,22.95
2022-07-29T14:25:44.569Z,22.95
2022-07-29T14:28:16.067Z,22.94
2022-07-29T14:30:44.191Z,22.96
2022-07-29T14:33:12.172Z,22.96
2022-07-29T14:35:42.805Z,22.96
2022-07-29T14:38:10.369Z,22.97
2022-07-29T14:40:38.022Z,23.00
2022-07-29T14:43:05.628Z,23.00
2022-07-29T14:45:34.613Z,23.01
2022-07-29T14:48:02.272Z,22.99
2022-07-29T14:50:31.776Z,22.97
2022-07-29T14:52:59.901Z,23.00
2022-07-29T14:55:27.632Z,22.98
2022-07-29T14:58:05.849Z,23.00
2022-07-29T15:00:38.603Z,23.01
2022-07-29T15:03:06.505Z,23.02
2022-07-29T15:05:38.737Z,23.02
2022-07-29T15:08:06.352Z,23.01
2022-07-29T15:10:34.033Z,23.00
2022-07-29T15:13:01.653Z,23.00
2022-07-29T15:15:29.351Z,22.99
2022-07-29T15:17:58.309Z,22.98
2022-07-29T15:20:27.950Z,23.00
2022-07-29T15:22:56.373Z,23.02
2022-07-29T15:25:24.298Z,23.02
2022-07-29T15:27:54.792Z,23.04
2022-07-29T15:30:32.434Z,23.04
2022-07-29T15:33:03.115Z,23.02
2022-07-29T15:35:31.217Z,23.03
2022-07-29T15:37:58.796Z,23.02
2022-07-29T15:40:26.397Z,23.02
2022-07-29T15:42:54.013Z,23.03
2022-07-29T15:45:21.614Z,23.03
2022-07-29T15:47:49.321Z,23.04
2022-07-29T15:50:19.986Z,23.05
2022-07-29T15:52:47.949Z,23.05
2022-07-29T15:55:34.215Z,23.05
2022-07-29T15:58:22.618Z,23.06
2022-07-29T16:00:54.085Z,23.06
2022-07-29T16:03:22.786Z,23.07
2022-07-29T16:05:51.737Z,23.08
2022-07-29T16:08:19.896Z,23.09
2022-07-29T16:10:47.481Z,23.11
2022-07-29T16:13:17.799Z,23.14
2022-07-29T16:15:46.625Z,23.12
2022-07-29T16:18:30.738Z,23.10
2022-07-29T16:20:59.766Z,23.07
2022-07-29T16:23:27.399Z,23.05
2022-07-29T16:26:00.193Z,23.02
2022-07-29T16:28:28.656Z,22.98
2022-07-29T16:30:57.151Z,23.00
2022-07-29T16:33:24.851Z,23.01
2022-07-29T16:35:52.636Z,23.00
2022-07-29T16:38:21.645Z,23.04
2022-07-29T16:40:49.395Z,23.01
2022-07-29T16:43:17.024Z,23.06
2022-07-29T16:45:46.040Z,23.02
2022-07-29T16:48:14.408Z,23.03
2022-07-29T16:50:43.346Z,23.03
2022-07-29T16:53:11.488Z,23.04
2022-07-29T16:55:42.478Z,23.06
2022-07-29T16:58:10.385Z,23.07
2022-07-29T17:00:38.090Z,23.07
2022-07-29T17:03:05.775Z,23.04
2022-07-29T17:05:52.064Z,23.01
2022-07-29T17:08:21.113Z,23.05
2022-07-29T17:10:50.261Z,23.01
2022-07-29T17:13:17.865Z,22.97
2022-07-29T17:15:45.473Z,23.01
2022-07-29T17:18:13.182Z,23.02
2022-07-29T17:20:41.789Z,23.05
2022-07-29T17:23:09.402Z,23.06
2022-07-29T17:25:37.006Z,23.07
2022-07-29T17:28:06.056Z,23.06
2022-07-29T17:30:33.694Z,23.07
2022-07-29T17:33:01.284Z,23.08
2022-07-29T17:35:46.457Z,23.11
2022-07-29T17:38:14.047Z,23.13
2022-07-29T17:40:41.957Z,23.15
2022-07-29T17:43:10.945Z,23.16
2022-07-29T17:45:49.994Z,23.20
2022-07-29T17:48:18.719Z,23.22
2022-07-29T17:50:46.325Z,23.21
2022-07-29T17:53:16.027Z,23.21
2022-07-29T17:55:45.207Z,23.19
2022-07-29T17:58:14.350Z,23.20
2022-07-29T18:00:42.130Z,23.18
2022-07-29T18:03:09.962Z,23.15
2022-07-29T18:05:37.790Z,23.13
2022-07-29T18:08:05.900Z,23.15
2022-07-29T18:10:33.519Z,23.18
2022-07-29T18:13:01.092Z,23.20
2022-07-29T18:15:30.053Z,23.21
2022-07-29T18:17:58.165Z,23.21
2022-07-29T18:20:25.887Z,23.22
2022-07-29T18:22:53.530Z,23.25
2022-07-29T18:25:22.017Z,23.27
2022-07-29T18:27:49.679Z,23.29
2022-07-29T18:30:18.116Z,23.28
2022-07-29T18:33:18.165Z,23.23
2022-07-29T18:35:37.274Z,23.22
2022-07-29T18:38:05.994Z,23.21
2022-07-29T18:40:33.844Z,23.24
2022-07-29T18:43:01.567Z,23.26
2022-07-29T18:45:29.235Z,23.22
2022-07-29T18:47:58.470Z,23.22
2022-07-29T18:50:29.210Z,23.21
2022-07-29T18:53:15.777Z,23.24
2022-07-29T18:55:43.505Z,23.22
2022-07-29T18:58:11.188Z,23.22
2022-07-29T19:00:38.987Z,23.21
2022-07-29T19:03:08.065Z,23.21
2022-07-29T19:05:35.921Z,23.20
2022-07-29T19:08:03.532Z,23.21
2022-07-29T19:10:31.406Z,23.23
2022-07-29T19:12:59.013Z,23.21
2022-07-29T19:15:26.933Z,23.20
2022-07-29T19:17:59.009Z,23.21
2022-07-29T19:20:30.313Z,23.20
2022-07-29T19:22:58.463Z,23.27
2022-07-29T19:25:26.451Z,23.28
2022-07-29T19:27:54.160Z,23.25
2022-07-29T19:30:22.164Z,23.20
2022-07-29T19:32:49.817Z,23.13
2022-07-29T19:35:28.300Z,23.06
2022-07-29T19:37:58.288Z,23.04
2022-07-29T19:40:26.685Z,22.99
2022-07-29T19:42:54.377Z,22.94
2022-07-29T19:45:22.158Z,22.93
2022-07-29T19:47:50.091Z,22.91
2022-07-29T19:50:17.743Z,22.86
2022-07-29T19:52:47.005Z,22.85
2022-07-29T19:55:16.059Z,22.80
2022-07-29T19:57:46.891Z,22.75
2022-07-29T20:00:16.041Z,22.75
2022-07-29T20:02:43.740Z,22.73
2022-07-29T20:05:11.412Z,22.69
2022-07-29T20:07:39.301Z,22.68
2022-07-29T20:10:08.004Z,22.65
2022-07-29T20:12:37.930Z,22.64
2022-07-29T20:15:07.011Z,22.62
2022-07-29T20:17:39.847Z,22.60
2022-07-29T20:20:08.711Z,22.58
2022-07-29T20:22:36.388Z,22.57
2022-07-29T20:25:04.080Z,22.56
2022-07-29T20:27:31.884Z,22.55
2022-07-29T20:30:00.847Z,22.53
2022-07-29T20:32:28.496Z,22.52
2022-07-29T20:34:56.107Z,22.51
2022-07-29T20:37:23.729Z,22.51
2022-07-29T20:39:51.292Z,22.51
2022-07-29T20:42:18.918Z,22.50
2022-07-29T20:44:46.893Z,22.49
2022-07-29T20:47:15.952Z,22.47
2022-07-29T20:49:43.572Z,22.46
2022-07-29T20:52:11.148Z,22.46
2022-07-29T20:54:38.761Z,22.46
2022-07-29T20:57:06.363Z,22.43
2022-07-29T20:59:34.122Z,22.42
2022-07-29T21:02:01.801Z,22.42
2022-07-29T21:04:31.086Z,22.41
2022-07-29T21:07:00.617Z,22.40
2022-07-29T21:09:28.604Z,22.39
2022-07-29T21:11:56.222Z,22.38
2022-07-29T21:14:46.045Z,22.38
2022-07-29T21:17:13.683Z,22.38
2022-07-29T21:19:42.693Z,22.37
2022-07-29T21:22:10.395Z,22.38
2022-07-29T21:24:38.070Z,22.37
2022-07-29T21:27:23.562Z,22.36
2022-07-29T21:29:51.332Z,22.34
2022-07-29T21:32:27.600Z,22.33
2022-07-29T21:34:59.396Z,22.33
2022-07-29T21:37:27.020Z,22.33
2022-07-29T21:39:54.664Z,22.31
2022-07-29T21:42:22.257Z,22.29
2022-07-29T21:44:50.258Z,22.30
2022-07-29T21:47:17.882Z,22.29
2022-07-29T21:49:46.387Z,22.29
2022-07-29T21:52:15.673Z,22.30
2022-07-29T21:54:45.812Z,22.28
2022-07-29T21:57:13.419Z,22.28
2022-07-29T21:59:41.177Z,22.26
2022-07-29T22:02:08.797Z,22.27
2022-07-29T22:04:36.575Z,22.25
2022-07-29T22:07:04.525Z,22.23
2022-07-29T22:09:33.501Z,22.24
2022-07-29T22:12:02.496Z,22.23
2022-07-29T22:14:30.072Z,22.22
2022-07-29T22:16:58.006Z,22.22
2022-07-29T22:19:27.533Z,22.22
2022-07-29T22:21:55.308Z,22.22
2022-07-29T22:24:22.923Z,22.19
2022-07-29T22:26:51.974Z,22.19
2022-07-29T22:29:19.854Z,22.21
2022-07-29T22:31:47.450Z,22.19
2022-07-29T22:34:15.533Z,22.20
2022-07-29T22:36:43.369Z,22.20
2022-07-29T22:39:11.019Z,22.20
2022-07-29T22:41:55.340Z,22.21
2022-07-29T22:44:24.326Z,22.21
2022-07-29T22:46:51.927Z,22.19
2022-07-29T22:49:19.599Z,22.19
2022-07-29T22:51:47.239Z,22.19
2022-07-29T22:54:14.849Z,22.18
2022-07-29T22:56:42.454Z,22.17
2022-07-29T22:59:10.073Z,22.15
2022-07-29T23:01:39.038Z,22.13
2022-07-29T23:04:06.742Z,22.12
2022-07-29T23:06:34.435Z,22.12
2022-07-29T23:09:02.034Z,22.13
2022-07-29T23:11:29.660Z,22.13
2022-07-29T23:13:57.278Z,22.10
2022-07-29T23:16:26.363Z,22.09
2022-07-29T23:18:56.013Z,22.09
2022-07-29T23:21:23.628Z,22.07
2022-07-29T23:23:51.447Z,22.07
2022-07-29T23:26:19.093Z,22.06
2022-07-29T23:28:46.777Z,22.05
2022-07-29T23:31:14.470Z,22.04
2022-07-29T23:33:42.163Z,22.05
2022-07-29T23:36:11.140Z,22.04
2022-07-29T23:38:40.777Z,22.04
2022-07-29T23:41:09.591Z,22.04
2022-07-29T23:43:37.285Z,22.05
2022-07-29T23:46:05.139Z,22.05
2022-07-29T23:48:34.085Z,22.03
2022-07-29T23:51:01.658Z,22.04
2022-07-29T23:53:30.629Z,22.04
2022-07-29T23:55:58.233Z,22.04
2022-07-29T23:58:25.853Z,22.05
